sensor_id;sensor_type;location;lat;lon;timestamp;P1;durP1;ratioP1;P2;durP2;ratioP2
49842;SDS011;55559;48.898;9.184;2023-10-13T00:01:47;16.38;;;7.68;;
49842;SDS011;55559;48.898;9.184;2023-10-13T00:04:18;17.88;;;7.47;;
49842;SDS011;55559;48.898;9.184;2023-10-13T00:06:48;18.55;;;7.90;;
49842;SDS011;55559;48.898;9.184;2023-10-13T00:09:15;15.35;;;7.57;;
49842;SDS011;55559;48.898;9.184;2023-10-13T00:11:44;15.57;;;7.53;;
49842;SDS011;55559;48.898;9.184;2023-10-13T00:14:12;21.65;;;7.00;;
49842;SDS011;55559;48.898;9.184;2023-10-13T00:16:42;16.67;;;8.10;;
49842;SDS011;55559;48.898;9.184;2023-10-13T00:19:28;27.65;;;8.43;;
49842;SDS011;55559;48.898;9.184;2023-10-13T00:22:03;19.25;;;8.00;;
49842;SDS011;55559;48.898;9.184;2023-10-13T00:24:34;22.63;;;8.35;;
49842;SDS011;55559;48.898;9.184;2023-10-13T00:27:08;16.40;;;8.38;;
49842;SDS011;55559;48.898;9.184;2023-10-13T00:29:50;18.33;;;8.32;;
49842;SDS011;55559;48.898;9.184;2023-10-13T00:32:29;23.55;;;8.40;;
49842;SDS011;55559;48.898;9.184;2023-10-13T00:34:58;19.02;;;8.40;;
49842;SDS011;55559;48.898;9.184;2023-10-13T00:37:31;19.85;;;8.38;;
49842;SDS011;55559;48.898;9.184;2023-10-13T00:40:07;16.95;;;8.70;;
49842;SDS011;55559;48.898;9.184;2023-10-13T00:42:51;22.10;;;8.85;;
49842;SDS011;55559;48.898;9.184;2023-10-13T00:45:19;20.08;;;8.18;;
49842;SDS011;55559;48.898;9.184;2023-10-13T00:47:47;19.63;;;8.43;;
49842;SDS011;55559;48.898;9.184;2023-10-13T00:50:23;19.35;;;7.93;;
49842;SDS011;55559;48.898;9.184;2023-10-13T00:52:50;21.23;;;8.73;;
49842;SDS011;55559;48.898;9.184;2023-10-13T00:55:17;20.60;;;7.78;;
49842;SDS011;55559;48.898;9.184;2023-10-13T00:57:45;24.23;;;7.28;;
49842;SDS011;55559;48.898;9.184;2023-10-13T01:00:12;22.55;;;7.57;;
49842;SDS011;55559;48.898;9.184;2023-10-13T01:02:44;22.30;;;8.32;;
49842;SDS011;55559;48.898;9.184;2023-10-13T01:05:10;16.67;;;7.22;;
49842;SDS011;55559;48.898;9.184;2023-10-13T01:07:46;29.85;;;8.40;;
49842;SDS011;55559;48.898;9.184;2023-10-13T01:10:16;18.83;;;6.82;;
49842;SDS011;55559;48.898;9.184;2023-10-13T01:12:44;16.00;;;7.70;;
49842;SDS011;55559;48.898;9.184;2023-10-13T01:15:12;20.40;;;7.50;;
49842;SDS011;55559;48.898;9.184;2023-10-13T01:17:43;17.48;;;7.60;;
49842;SDS011;55559;48.898;9.184;2023-10-13T01:20:11;17.88;;;8.70;;
49842;SDS011;55559;48.898;9.184;2023-10-13T01:22:46;15.10;;;8.98;;
49842;SDS011;55559;48.898;9.184;2023-10-13T01:25:23;18.38;;;7.97;;
49842;SDS011;55559;48.898;9.184;2023-10-13T01:27:55;20.80;;;8.82;;
49842;SDS011;55559;48.898;9.184;2023-10-13T01:30:21;14.45;;;8.32;;
49842;SDS011;55559;48.898;9.184;2023-10-13T01:32:52;18.95;;;9.07;;
49842;SDS011;55559;48.898;9.184;2023-10-13T01:35:19;19.08;;;8.15;;
49842;SDS011;55559;48.898;9.184;2023-10-13T01:37:51;19.50;;;8.15;;
49842;SDS011;55559;48.898;9.184;2023-10-13T01:40:18;23.65;;;8.85;;
49842;SDS011;55559;48.898;9.184;2023-10-13T01:42:47;15.43;;;6.93;;
49842;SDS011;55559;48.898;9.184;2023-10-13T01:45:20;25.70;;;6.75;;
49842;SDS011;55559;48.898;9.184;2023-10-13T01:47:47;19.55;;;7.32;;
49842;SDS011;55559;48.898;9.184;2023-10-13T01:50:16;16.00;;;6.53;;
49842;SDS011;55559;48.898;9.184;2023-10-13T01:52:46;14.05;;;5.88;;
49842;SDS011;55559;48.898;9.184;2023-10-13T01:55:14;17.92;;;5.88;;
49842;SDS011;55559;48.898;9.184;2023-10-13T01:57:40;16.35;;;5.70;;
49842;SDS011;55559;48.898;9.184;2023-10-13T02:00:14;14.18;;;5.47;;
49842;SDS011;55559;48.898;9.184;2023-10-13T02:02:44;15.23;;;4.90;;
49842;SDS011;55559;48.898;9.184;2023-10-13T02:05:15;9.15;;;4.85;;
49842;SDS011;55559;48.898;9.184;2023-10-13T02:07:42;14.15;;;5.40;;
49842;SDS011;55559;48.898;9.184;2023-10-13T02:10:11;11.18;;;4.28;;
49842;SDS011;55559;48.898;9.184;2023-10-13T02:12:38;12.18;;;4.35;;
49842;SDS011;55559;48.898;9.184;2023-10-13T02:15:10;12.30;;;4.30;;
49842;SDS011;55559;48.898;9.184;2023-10-13T02:17:39;13.90;;;4.60;;
49842;SDS011;55559;48.898;9.184;2023-10-13T02:20:07;9.85;;;3.67;;
49842;SDS011;55559;48.898;9.184;2023-10-13T02:22:35;10.63;;;4.28;;
49842;SDS011;55559;48.898;9.184;2023-10-13T02:25:05;11.35;;;3.78;;
49842;SDS011;55559;48.898;9.184;2023-10-13T02:27:32;10.05;;;3.17;;
49842;SDS011;55559;48.898;9.184;2023-10-13T02:30:06;8.77;;;3.60;;
49842;SDS011;55559;48.898;9.184;2023-10-13T02:32:40;14.90;;;3.65;;
49842;SDS011;55559;48.898;9.184;2023-10-13T02:35:09;10.80;;;3.28;;
49842;SDS011;55559;48.898;9.184;2023-10-13T02:37:41;14.20;;;2.80;;
49842;SDS011;55559;48.898;9.184;2023-10-13T02:40:10;14.55;;;3.00;;
49842;SDS011;55559;48.898;9.184;2023-10-13T02:42:36;11.02;;;3.15;;
49842;SDS011;55559;48.898;9.184;2023-10-13T02:45:04;11.85;;;2.00;;
49842;SDS011;55559;48.898;9.184;2023-10-13T02:47:33;9.50;;;3.05;;
49842;SDS011;55559;48.898;9.184;2023-10-13T02:50:00;9.70;;;2.58;;
49842;SDS011;55559;48.898;9.184;2023-10-13T02:52:37;9.88;;;2.33;;
49842;SDS011;55559;48.898;9.184;2023-10-13T02:55:07;11.43;;;2.38;;
49842;SDS011;55559;48.898;9.184;2023-10-13T02:57:35;9.57;;;2.72;;
49842;SDS011;55559;48.898;9.184;2023-10-13T03:00:02;9.05;;;2.30;;
49842;SDS011;55559;48.898;9.184;2023-10-13T03:02:38;16.02;;;1.90;;
49842;SDS011;55559;48.898;9.184;2023-10-13T03:05:11;6.78;;;2.78;;
49842;SDS011;55559;48.898;9.184;2023-10-13T03:07:39;7.75;;;1.92;;
49842;SDS011;55559;48.898;9.184;2023-10-13T03:10:08;11.73;;;1.98;;
49842;SDS011;55559;48.898;9.184;2023-10-13T03:12:36;7.22;;;1.55;;
49842;SDS011;55559;48.898;9.184;2023-10-13T03:15:02;12.23;;;2.33;;
49842;SDS011;55559;48.898;9.184;2023-10-13T03:17:39;5.75;;;2.08;;
49842;SDS011;55559;48.898;9.184;2023-10-13T03:20:09;8.45;;;2.38;;
49842;SDS011;55559;48.898;9.184;2023-10-13T03:22:38;12.82;;;1.80;;
49842;SDS011;55559;48.898;9.184;2023-10-13T03:25:05;9.13;;;1.65;;
49842;SDS011;55559;48.898;9.184;2023-10-13T03:27:34;13.65;;;2.45;;
49842;SDS011;55559;48.898;9.184;2023-10-13T03:34:01;11.80;;;2.25;;
49842;SDS011;55559;48.898;9.184;2023-10-13T03:36:29;10.85;;;2.47;;
49842;SDS011;55559;48.898;9.184;2023-10-13T03:39:17;13.27;;;2.28;;
49842;SDS011;55559;48.898;9.184;2023-10-13T03:41:48;12.15;;;2.45;;
49842;SDS011;55559;48.898;9.184;2023-10-13T03:44:19;10.82;;;2.38;;
49842;SDS011;55559;48.898;9.184;2023-10-13T03:46:46;12.45;;;2.38;;
49842;SDS011;55559;48.898;9.184;2023-10-13T03:49:14;9.82;;;2.13;;
49842;SDS011;55559;48.898;9.184;2023-10-13T03:51:47;15.30;;;3.45;;
49842;SDS011;55559;48.898;9.184;2023-10-13T03:54:14;11.43;;;3.10;;
49842;SDS011;55559;48.898;9.184;2023-10-13T03:56:44;15.30;;;3.30;;
49842;SDS011;55559;48.898;9.184;2023-10-13T03:59:11;11.18;;;2.53;;
49842;SDS011;55559;48.898;9.184;2023-10-13T04:01:45;7.38;;;2.17;;
49842;SDS011;55559;48.898;9.184;2023-10-13T04:04:13;9.70;;;2.58;;
49842;SDS011;55559;48.898;9.184;2023-10-13T04:06:41;5.50;;;2.10;;
49842;SDS011;55559;48.898;9.184;2023-10-13T04:09:39;10.55;;;2.58;;
49842;SDS011;55559;48.898;9.184;2023-10-13T04:12:21;14.38;;;2.60;;
49842;SDS011;55559;48.898;9.184;2023-10-13T04:15:13;10.38;;;2.50;;
49842;SDS011;55559;48.898;9.184;2023-10-13T04:17:48;16.88;;;2.90;;
49842;SDS011;55559;48.898;9.184;2023-10-13T04:20:16;6.70;;;1.77;;
49842;SDS011;55559;48.898;9.184;2023-10-13T04:22:58;11.15;;;4.05;;
49842;SDS011;55559;48.898;9.184;2023-10-13T04:25:43;7.70;;;2.45;;
49842;SDS011;55559;48.898;9.184;2023-10-13T04:28:35;21.33;;;4.32;;
49842;SDS011;55559;48.898;9.184;2023-10-13T04:31:03;12.60;;;3.42;;
49842;SDS011;55559;48.898;9.184;2023-10-13T04:33:46;10.02;;;4.18;;
49842;SDS011;55559;48.898;9.184;2023-10-13T04:36:21;17.23;;;4.65;;
49842;SDS011;55559;48.898;9.184;2023-10-13T04:39:02;14.15;;;4.93;;
49842;SDS011;55559;48.898;9.184;2023-10-13T04:41:35;10.57;;;4.82;;
49842;SDS011;55559;48.898;9.184;2023-10-13T04:44:06;10.32;;;4.45;;
49842;SDS011;55559;48.898;9.184;2023-10-13T04:46:47;9.82;;;4.75;;
49842;SDS011;55559;48.898;9.184;2023-10-13T04:49:39;12.95;;;4.88;;
49842;SDS011;55559;48.898;9.184;2023-10-13T04:52:15;14.50;;;4.60;;
49842;SDS011;55559;48.898;9.184;2023-10-13T04:55:05;13.40;;;4.60;;
49842;SDS011;55559;48.898;9.184;2023-10-13T04:57:43;12.23;;;5.53;;
49842;SDS011;55559;48.898;9.184;2023-10-13T05:00:20;15.02;;;5.82;;
49842;SDS011;55559;48.898;9.184;2023-10-13T05:03:18;13.35;;;5.53;;
49842;SDS011;55559;48.898;9.184;2023-10-13T05:06:11;13.97;;;5.67;;
49842;SDS011;55559;48.898;9.184;2023-10-13T05:09:00;8.65;;;4.05;;
49842;SDS011;55559;48.898;9.184;2023-10-13T05:11:45;12.98;;;4.30;;
49842;SDS011;55559;48.898;9.184;2023-10-13T05:14:29;6.68;;;3.70;;
49842;SDS011;55559;48.898;9.184;2023-10-13T05:17:15;13.05;;;4.50;;
49842;SDS011;55559;48.898;9.184;2023-10-13T05:19:59;11.57;;;4.22;;
49842;SDS011;55559;48.898;9.184;2023-10-13T05:22:43;13.10;;;4.68;;
49842;SDS011;55559;48.898;9.184;2023-10-13T05:25:28;15.52;;;3.60;;
49842;SDS011;55559;48.898;9.184;2023-10-13T05:28:15;16.95;;;3.72;;
49842;SDS011;55559;48.898;9.184;2023-10-13T05:30:59;22.63;;;4.57;;
49842;SDS011;55559;48.898;9.184;2023-10-13T05:33:45;17.27;;;3.67;;
49842;SDS011;55559;48.898;9.184;2023-10-13T05:36:29;19.02;;;3.03;;
49842;SDS011;55559;48.898;9.184;2023-10-13T05:39:14;35.75;;;4.35;;
49842;SDS011;55559;48.898;9.184;2023-10-13T05:41:58;20.95;;;4.65;;
49842;SDS011;55559;48.898;9.184;2023-10-13T05:44:42;16.67;;;5.18;;
49842;SDS011;55559;48.898;9.184;2023-10-13T05:47:22;17.55;;;4.30;;
49842;SDS011;55559;48.898;9.184;2023-10-13T05:50:08;12.80;;;4.10;;
49842;SDS011;55559;48.898;9.184;2023-10-13T05:52:54;14.10;;;4.57;;
49842;SDS011;55559;48.898;9.184;2023-10-13T05:55:38;14.18;;;4.75;;
49842;SDS011;55559;48.898;9.184;2023-10-13T05:58:23;17.95;;;3.83;;
49842;SDS011;55559;48.898;9.184;2023-10-13T06:01:11;19.58;;;3.15;;
49842;SDS011;55559;48.898;9.184;2023-10-13T06:03:56;10.80;;;3.47;;
49842;SDS011;55559;48.898;9.184;2023-10-13T06:06:42;13.52;;;3.30;;
49842;SDS011;55559;48.898;9.184;2023-10-13T06:09:31;13.70;;;3.50;;
49842;SDS011;55559;48.898;9.184;2023-10-13T06:12:15;10.02;;;3.95;;
49842;SDS011;55559;48.898;9.184;2023-10-13T06:15:00;18.75;;;4.10;;
49842;SDS011;55559;48.898;9.184;2023-10-13T06:17:44;19.50;;;4.13;;
49842;SDS011;55559;48.898;9.184;2023-10-13T06:20:29;21.38;;;4.20;;
49842;SDS011;55559;48.898;9.184;2023-10-13T06:23:15;20.63;;;4.30;;
49842;SDS011;55559;48.898;9.184;2023-10-13T06:25:59;21.23;;;3.00;;
49842;SDS011;55559;48.898;9.184;2023-10-13T06:28:43;17.60;;;3.47;;
49842;SDS011;55559;48.898;9.184;2023-10-13T06:31:11;21.73;;;2.70;;
49842;SDS011;55559;48.898;9.184;2023-10-13T06:33:47;21.17;;;2.83;;
49842;SDS011;55559;48.898;9.184;2023-10-13T06:36:14;21.83;;;2.65;;
49842;SDS011;55559;48.898;9.184;2023-10-13T06:38:44;17.27;;;3.03;;
49842;SDS011;55559;48.898;9.184;2023-10-13T06:41:20;12.80;;;3.10;;
49842;SDS011;55559;48.898;9.184;2023-10-13T06:43:55;17.17;;;2.40;;
49842;SDS011;55559;48.898;9.184;2023-10-13T06:46:26;19.88;;;3.80;;
49842;SDS011;55559;48.898;9.184;2023-10-13T06:48:54;16.48;;;3.30;;
49842;SDS011;55559;48.898;9.184;2023-10-13T06:51:24;23.77;;;3.88;;
49842;SDS011;55559;48.898;9.184;2023-10-13T06:53:57;40.97;;;3.75;;
49842;SDS011;55559;48.898;9.184;2023-10-13T06:56:28;27.92;;;4.00;;
49842;SDS011;55559;48.898;9.184;2023-10-13T06:58:56;23.10;;;4.35;;
49842;SDS011;55559;48.898;9.184;2023-10-13T07:01:31;27.83;;;4.28;;
49842;SDS011;55559;48.898;9.184;2023-10-13T07:04:04;12.48;;;3.13;;
49842;SDS011;55559;48.898;9.184;2023-10-13T07:06:38;18.10;;;3.95;;
49842;SDS011;55559;48.898;9.184;2023-10-13T07:09:09;14.98;;;3.28;;
49842;SDS011;55559;48.898;9.184;2023-10-13T07:11:53;15.95;;;2.75;;
49842;SDS011;55559;48.898;9.184;2023-10-13T07:14:26;11.45;;;3.33;;
49842;SDS011;55559;48.898;9.184;2023-10-13T07:16:55;22.10;;;3.90;;
49842;SDS011;55559;48.898;9.184;2023-10-13T07:19:24;13.98;;;4.00;;
49842;SDS011;55559;48.898;9.184;2023-10-13T07:21:53;10.90;;;3.08;;
49842;SDS011;55559;48.898;9.184;2023-10-13T07:24:25;26.17;;;3.33;;
49842;SDS011;55559;48.898;9.184;2023-10-13T07:26:56;31.23;;;4.00;;
49842;SDS011;55559;48.898;9.184;2023-10-13T07:29:28;15.85;;;3.83;;
49842;SDS011;55559;48.898;9.184;2023-10-13T07:31:56;16.30;;;4.07;;
49842;SDS011;55559;48.898;9.184;2023-10-13T07:34:24;20.73;;;3.60;;
49842;SDS011;55559;48.898;9.184;2023-10-13T07:36:52;30.92;;;4.63;;
49842;SDS011;55559;48.898;9.184;2023-10-13T07:41:52;16.45;;;4.03;;
49842;SDS011;55559;48.898;9.184;2023-10-13T07:44:29;24.02;;;3.75;;
49842;SDS011;55559;48.898;9.184;2023-10-13T07:46:58;23.38;;;3.38;;
49842;SDS011;55559;48.898;9.184;2023-10-13T07:49:31;19.92;;;4.30;;
49842;SDS011;55559;48.898;9.184;2023-10-13T07:52:02;14.25;;;3.70;;
49842;SDS011;55559;48.898;9.184;2023-10-13T07:54:43;16.92;;;3.05;;
49842;SDS011;55559;48.898;9.184;2023-10-13T07:57:14;16.92;;;3.53;;
49842;SDS011;55559;48.898;9.184;2023-10-13T07:59:42;18.95;;;3.65;;
49842;SDS011;55559;48.898;9.184;2023-10-13T08:02:17;15.82;;;3.63;;
49842;SDS011;55559;48.898;9.184;2023-10-13T08:04:57;22.58;;;4.00;;
49842;SDS011;55559;48.898;9.184;2023-10-13T08:07:24;15.38;;;2.78;;
49842;SDS011;55559;48.898;9.184;2023-10-13T08:09:53;17.42;;;3.10;;
49842;SDS011;55559;48.898;9.184;2023-10-13T08:12:24;21.52;;;3.55;;
49842;SDS011;55559;48.898;9.184;2023-10-13T08:14:53;16.73;;;3.10;;
49842;SDS011;55559;48.898;9.184;2023-10-13T08:17:37;20.27;;;4.20;;
49842;SDS011;55559;48.898;9.184;2023-10-13T08:20:10;13.45;;;3.03;;
49842;SDS011;55559;48.898;9.184;2023-10-13T08:22:38;12.80;;;3.72;;
49842;SDS011;55559;48.898;9.184;2023-10-13T08:25:12;12.85;;;3.28;;
49842;SDS011;55559;48.898;9.184;2023-10-13T08:28:00;15.77;;;3.15;;
49842;SDS011;55559;48.898;9.184;2023-10-13T08:30:43;14.18;;;2.72;;
49842;SDS011;55559;48.898;9.184;2023-10-13T08:33:19;15.38;;;2.60;;
49842;SDS011;55559;48.898;9.184;2023-10-13T08:35:50;13.35;;;3.05;;
49842;SDS011;55559;48.898;9.184;2023-10-13T08:38:52;20.50;;;3.67;;
49842;SDS011;55559;48.898;9.184;2023-10-13T08:41:21;17.38;;;3.25;;
49842;SDS011;55559;48.898;9.184;2023-10-13T08:44:02;20.95;;;3.63;;
49842;SDS011;55559;48.898;9.184;2023-10-13T08:46:33;26.27;;;3.05;;
49842;SDS011;55559;48.898;9.184;2023-10-13T08:49:29;14.52;;;2.75;;
49842;SDS011;55559;48.898;9.184;2023-10-13T08:51:58;23.48;;;9.68;;
49842;SDS011;55559;48.898;9.184;2023-10-13T08:54:52;11.07;;;1.70;;
49842;SDS011;55559;48.898;9.184;2023-10-13T08:57:39;13.10;;;4.10;;
49842;SDS011;55559;48.898;9.184;2023-10-13T09:00:10;20.25;;;2.25;;
49842;SDS011;55559;48.898;9.184;2023-10-13T09:03:15;14.93;;;3.80;;
49842;SDS011;55559;48.898;9.184;2023-10-13T09:06:04;14.43;;;2.33;;
49842;SDS011;55559;48.898;9.184;2023-10-13T09:08:32;15.27;;;2.08;;
49842;SDS011;55559;48.898;9.184;2023-10-13T09:11:02;14.43;;;1.33;;
49842;SDS011;55559;48.898;9.184;2023-10-13T09:13:37;11.25;;;2.05;;
49842;SDS011;55559;48.898;9.184;2023-10-13T09:16:14;17.02;;;2.45;;
49842;SDS011;55559;48.898;9.184;2023-10-13T09:18:50;15.32;;;2.33;;
49842;SDS011;55559;48.898;9.184;2023-10-13T09:21:17;20.52;;;2.20;;
49842;SDS011;55559;48.898;9.184;2023-10-13T09:23:58;15.73;;;1.85;;
49842;SDS011;55559;48.898;9.184;2023-10-13T09:26:39;12.52;;;1.65;;
49842;SDS011;55559;48.898;9.184;2023-10-13T09:29:14;17.63;;;2.50;;
49842;SDS011;55559;48.898;9.184;2023-10-13T09:31:41;15.52;;;1.45;;
49842;SDS011;55559;48.898;9.184;2023-10-13T09:34:10;44.38;;;4.15;;
49842;SDS011;55559;48.898;9.184;2023-10-13T09:36:36;16.80;;;3.20;;
49842;SDS011;55559;48.898;9.184;2023-10-13T09:39:03;19.38;;;2.53;;
49842;SDS011;55559;48.898;9.184;2023-10-13T09:41:39;18.90;;;2.25;;
49842;SDS011;55559;48.898;9.184;2023-10-13T09:44:07;22.35;;;2.47;;
49842;SDS011;55559;48.898;9.184;2023-10-13T09:46:35;10.50;;;1.50;;
49842;SDS011;55559;48.898;9.184;2023-10-13T09:49:11;15.55;;;1.65;;
49842;SDS011;55559;48.898;9.184;2023-10-13T09:51:48;10.88;;;1.58;;
49842;SDS011;55559;48.898;9.184;2023-10-13T09:54:17;11.65;;;1.65;;
49842;SDS011;55559;48.898;9.184;2023-10-13T09:56:50;16.45;;;1.42;;
49842;SDS011;55559;48.898;9.184;2023-10-13T09:59:17;11.52;;;1.10;;
49842;SDS011;55559;48.898;9.184;2023-10-13T10:01:46;20.17;;;1.10;;
49842;SDS011;55559;48.898;9.184;2023-10-13T10:04:18;17.50;;;1.90;;
49842;SDS011;55559;48.898;9.184;2023-10-13T10:09:15;11.52;;;1.55;;
49842;SDS011;55559;48.898;9.184;2023-10-13T10:14:42;22.05;;;9.40;;
49842;SDS011;55559;48.898;9.184;2023-10-13T10:17:11;15.95;;;8.15;;
49842;SDS011;55559;48.898;9.184;2023-10-13T10:19:48;11.60;;;2.08;;
49842;SDS011;55559;48.898;9.184;2023-10-13T10:22:26;15.93;;;1.67;;
49842;SDS011;55559;48.898;9.184;2023-10-13T10:24:56;17.23;;;1.33;;
49842;SDS011;55559;48.898;9.184;2023-10-13T10:27:24;18.58;;;2.08;;
49842;SDS011;55559;48.898;9.184;2023-10-13T10:29:54;16.40;;;4.28;;
49842;SDS011;55559;48.898;9.184;2023-10-13T10:32:31;11.13;;;3.47;;
49842;SDS011;55559;48.898;9.184;2023-10-13T10:35:03;10.68;;;2.35;;
49842;SDS011;55559;48.898;9.184;2023-10-13T10:37:33;7.72;;;1.45;;
49842;SDS011;55559;48.898;9.184;2023-10-13T10:40:00;13.68;;;1.20;;
49842;SDS011;55559;48.898;9.184;2023-10-13T10:42:29;7.68;;;1.10;;
49842;SDS011;55559;48.898;9.184;2023-10-13T10:44:56;15.77;;;0.98;;
49842;SDS011;55559;48.898;9.184;2023-10-13T10:47:31;13.25;;;1.35;;
49842;SDS011;55559;48.898;9.184;2023-10-13T10:50:03;11.10;;;1.50;;
49842;SDS011;55559;48.898;9.184;2023-10-13T10:52:44;14.23;;;1.27;;
49842;SDS011;55559;48.898;9.184;2023-10-13T10:55:12;13.10;;;1.23;;
49842;SDS011;55559;48.898;9.184;2023-10-13T10:57:44;8.90;;;1.02;;
49842;SDS011;55559;48.898;9.184;2023-10-13T11:00:20;14.40;;;1.83;;
49842;SDS011;55559;48.898;9.184;2023-10-13T11:02:54;9.07;;;1.30;;
49842;SDS011;55559;48.898;9.184;2023-10-13T11:05:23;10.40;;;1.52;;
49842;SDS011;55559;48.898;9.184;2023-10-13T11:07:57;8.05;;;0.98;;
49842;SDS011;55559;48.898;9.184;2023-10-13T11:10:24;11.65;;;1.00;;
49842;SDS011;55559;48.898;9.184;2023-10-13T11:12:54;11.52;;;1.20;;
49842;SDS011;55559;48.898;9.184;2023-10-13T11:15:21;14.63;;;1.17;;
49842;SDS011;55559;48.898;9.184;2023-10-13T11:17:49;13.80;;;1.30;;
49842;SDS011;55559;48.898;9.184;2023-10-13T11:20:20;14.32;;;1.52;;
49842;SDS011;55559;48.898;9.184;2023-10-13T11:23:00;6.53;;;1.55;;
49842;SDS011;55559;48.898;9.184;2023-10-13T11:25:30;16.63;;;1.10;;
49842;SDS011;55559;48.898;9.184;2023-10-13T11:28:09;10.13;;;0.88;;
49842;SDS011;55559;48.898;9.184;2023-10-13T11:30:42;9.65;;;1.20;;
49842;SDS011;55559;48.898;9.184;2023-10-13T11:33:15;18.55;;;1.10;;
49842;SDS011;55559;48.898;9.184;2023-10-13T11:35:45;5.05;;;0.93;;
49842;SDS011;55559;48.898;9.184;2023-10-13T11:38:28;12.70;;;1.45;;
49842;SDS011;55559;48.898;9.184;2023-10-13T11:41:06;13.60;;;0.80;;
49842;SDS011;55559;48.898;9.184;2023-10-13T11:43:38;8.55;;;1.33;;
49842;SDS011;55559;48.898;9.184;2023-10-13T11:46:18;10.27;;;0.85;;
49842;SDS011;55559;48.898;9.184;2023-10-13T11:49:05;10.10;;;1.65;;
49842;SDS011;55559;48.898;9.184;2023-10-13T11:51:42;13.38;;;1.50;;
49842;SDS011;55559;48.898;9.184;2023-10-13T11:54:13;9.70;;;1.10;;
49842;SDS011;55559;48.898;9.184;2023-10-13T11:56:40;10.45;;;1.42;;
49842;SDS011;55559;48.898;9.184;2023-10-13T11:59:07;10.30;;;1.08;;
49842;SDS011;55559;48.898;9.184;2023-10-13T12:01:42;12.68;;;1.45;;
49842;SDS011;55559;48.898;9.184;2023-10-13T12:04:26;10.38;;;1.20;;
49842;SDS011;55559;48.898;9.184;2023-10-13T12:07:05;11.00;;;1.10;;
49842;SDS011;55559;48.898;9.184;2023-10-13T12:09:44;13.82;;;0.88;;
49842;SDS011;55559;48.898;9.184;2023-10-13T12:12:32;7.05;;;1.00;;
49842;SDS011;55559;48.898;9.184;2023-10-13T12:15:06;7.18;;;0.93;;
49842;SDS011;55559;48.898;9.184;2023-10-13T12:17:40;9.98;;;1.13;;
49842;SDS011;55559;48.898;9.184;2023-10-13T12:20:10;7.22;;;0.90;;
49842;SDS011;55559;48.898;9.184;2023-10-13T12:22:43;10.25;;;1.13;;
49842;SDS011;55559;48.898;9.184;2023-10-13T12:25:21;13.55;;;1.15;;
49842;SDS011;55559;48.898;9.184;2023-10-13T12:28:10;10.40;;;1.35;;
49842;SDS011;55559;48.898;9.184;2023-10-13T12:30:44;12.02;;;1.13;;
49842;SDS011;55559;48.898;9.184;2023-10-13T12:33:16;10.80;;;1.20;;
49842;SDS011;55559;48.898;9.184;2023-10-13T12:35:50;5.85;;;1.13;;
49842;SDS011;55559;48.898;9.184;2023-10-13T12:38:29;10.30;;;1.10;;
49842;SDS011;55559;48.898;9.184;2023-10-13T12:41:18;5.38;;;0.95;;
49842;SDS011;55559;48.898;9.184;2023-10-13T12:44:05;5.22;;;1.42;;
49842;SDS011;55559;48.898;9.184;2023-10-13T12:46:50;8.35;;;1.20;;
49842;SDS011;55559;48.898;9.184;2023-10-13T12:49:34;16.00;;;0.80;;
49842;SDS011;55559;48.898;9.184;2023-10-13T12:52:15;14.50;;;1.05;;
49842;SDS011;55559;48.898;9.184;2023-10-13T12:54:45;5.68;;;1.13;;
49842;SDS011;55559;48.898;9.184;2023-10-13T12:57:21;7.75;;;1.63;;
49842;SDS011;55559;48.898;9.184;2023-10-13T12:59:49;26.08;;;1.35;;
49842;SDS011;55559;48.898;9.184;2023-10-13T13:02:19;12.00;;;1.33;;
49842;SDS011;55559;48.898;9.184;2023-10-13T13:04:46;8.15;;;1.15;;
49842;SDS011;55559;48.898;9.184;2023-10-13T13:07:16;9.00;;;0.90;;
49842;SDS011;55559;48.898;9.184;2023-10-13T13:09:43;11.30;;;1.40;;
49842;SDS011;55559;48.898;9.184;2023-10-13T13:12:10;9.35;;;1.13;;
49842;SDS011;55559;48.898;9.184;2023-10-13T13:14:40;3.47;;;0.80;;
49842;SDS011;55559;48.898;9.184;2023-10-13T13:17:11;11.85;;;1.05;;
49842;SDS011;55559;48.898;9.184;2023-10-13T13:19:38;7.55;;;0.95;;
49842;SDS011;55559;48.898;9.184;2023-10-13T13:22:06;21.85;;;1.63;;
49842;SDS011;55559;48.898;9.184;2023-10-13T13:24:37;6.35;;;0.68;;
49842;SDS011;55559;48.898;9.184;2023-10-13T13:27:09;10.10;;;1.10;;
49842;SDS011;55559;48.898;9.184;2023-10-13T13:29:41;14.48;;;1.05;;
49842;SDS011;55559;48.898;9.184;2023-10-13T13:32:08;5.60;;;0.90;;
49842;SDS011;55559;48.898;9.184;2023-10-13T13:34:43;19.02;;;0.98;;
49842;SDS011;55559;48.898;9.184;2023-10-13T13:37:19;10.90;;;0.95;;
49842;SDS011;55559;48.898;9.184;2023-10-13T13:39:46;8.20;;;1.10;;
49842;SDS011;55559;48.898;9.184;2023-10-13T13:42:14;27.15;;;2.42;;
49842;SDS011;55559;48.898;9.184;2023-10-13T13:44:44;7.95;;;0.82;;
49842;SDS011;55559;48.898;9.184;2023-10-13T13:47:12;10.60;;;1.02;;
49842;SDS011;55559;48.898;9.184;2023-10-13T13:49:39;10.45;;;0.80;;
49842;SDS011;55559;48.898;9.184;2023-10-13T13:52:11;15.90;;;0.95;;
49842;SDS011;55559;48.898;9.184;2023-10-13T13:54:43;13.30;;;1.43;;
49842;SDS011;55559;48.898;9.184;2023-10-13T13:57:10;11.10;;;0.70;;
49842;SDS011;55559;48.898;9.184;2023-10-13T13:59:38;3.20;;;0.88;;
49842;SDS011;55559;48.898;9.184;2023-10-13T14:02:13;5.20;;;0.95;;
49842;SDS011;55559;48.898;9.184;2023-10-13T14:04:46;8.25;;;1.00;;
49842;SDS011;55559;48.898;9.184;2023-10-13T14:07:15;12.35;;;1.30;;
49842;SDS011;55559;48.898;9.184;2023-10-13T14:09:45;3.22;;;0.80;;
49842;SDS011;55559;48.898;9.184;2023-10-13T14:12:17;7.57;;;1.10;;
49842;SDS011;55559;48.898;9.184;2023-10-13T14:14:55;9.25;;;1.05;;
49842;SDS011;55559;48.898;9.184;2023-10-13T14:17:24;10.85;;;1.20;;
49842;SDS011;55559;48.898;9.184;2023-10-13T14:19:55;9.30;;;1.35;;
49842;SDS011;55559;48.898;9.184;2023-10-13T14:22:22;8.77;;;1.35;;
49842;SDS011;55559;48.898;9.184;2023-10-13T14:24:50;6.45;;;0.70;;
49842;SDS011;55559;48.898;9.184;2023-10-13T14:27:20;12.65;;;1.25;;
49842;SDS011;55559;48.898;9.184;2023-10-13T14:29:48;10.73;;;0.80;;
49842;SDS011;55559;48.898;9.184;2023-10-13T14:32:18;6.20;;;0.80;;
49842;SDS011;55559;48.898;9.184;2023-10-13T14:34:51;11.25;;;1.05;;
49842;SDS011;55559;48.898;9.184;2023-10-13T14:37:21;7.45;;;1.02;;
49842;SDS011;55559;48.898;9.184;2023-10-13T14:42:23;9.55;;;0.90;;
49842;SDS011;55559;48.898;9.184;2023-10-13T14:44:50;2.95;;;0.85;;
49842;SDS011;55559;48.898;9.184;2023-10-13T14:47:21;10.48;;;1.45;;
49842;SDS011;55559;48.898;9.184;2023-10-13T14:49:52;7.93;;;0.80;;
49842;SDS011;55559;48.898;9.184;2023-10-13T14:52:21;6.65;;;0.80;;
49842;SDS011;55559;48.898;9.184;2023-10-13T14:54:48;9.93;;;1.70;;
49842;SDS011;55559;48.898;9.184;2023-10-13T14:57:20;8.88;;;1.10;;
49842;SDS011;55559;48.898;9.184;2023-10-13T14:59:51;2.50;;;0.85;;
49842;SDS011;55559;48.898;9.184;2023-10-13T15:02:18;12.63;;;1.20;;
49842;SDS011;55559;48.898;9.184;2023-10-13T15:04:46;10.32;;;1.02;;
49842;SDS011;55559;48.898;9.184;2023-10-13T15:07:15;6.93;;;0.85;;
49842;SDS011;55559;48.898;9.184;2023-10-13T15:09:43;6.47;;;0.80;;
49842;SDS011;55559;48.898;9.184;2023-10-13T15:12:10;14.23;;;1.33;;
49842;SDS011;55559;48.898;9.184;2023-10-13T15:14:38;5.70;;;0.98;;
49842;SDS011;55559;48.898;9.184;2023-10-13T15:17:08;8.85;;;1.10;;
49842;SDS011;55559;48.898;9.184;2023-10-13T15:19:35;4.18;;;0.88;;
49842;SDS011;55559;48.898;9.184;2023-10-13T15:22:04;3.75;;;0.63;;
49842;SDS011;55559;48.898;9.184;2023-10-13T15:24:33;6.10;;;0.70;;
49842;SDS011;55559;48.898;9.184;2023-10-13T15:27:10;14.82;;;0.90;;
49842;SDS011;55559;48.898;9.184;2023-10-13T15:29:37;5.95;;;0.70;;
49842;SDS011;55559;48.898;9.184;2023-10-13T15:32:04;13.60;;;1.33;;